createdAt,value
2023-02-08T00:01:48.660Z,102690.09
2023-02-08T00:04:15.451Z,102681.88
2023-02-08T00:06:42.092Z,102684.53
2023-02-08T00:09:09.009Z,102676.88
2023-02-08T00:11:36.565Z,102671.97
2023-02-08T00:14:03.665Z,102677.94
2023-02-08T00:16:30.354Z,102674.13
2023-02-08T00:18:56.920Z,102674.25
2023-02-08T00:21:23.552Z,102671.75
2023-02-08T00:23:50.170Z,102679.56
2023-02-08T00:26:17.421Z,102675.38
2023-02-08T00:28:44.704Z,102672.84
2023-02-08T00:31:11.456Z,102674.41
2023-02-08T00:33:38.340Z,102677.97
2023-02-08T00:36:07.786Z,102679.31
2023-02-08T00:38:34.884Z,102681.25
2023-02-08T00:41:01.885Z,102674.28
2023-02-08T00:43:28.643Z,102676.41
2023-02-08T00:45:59.632Z,102673.91
2023-02-08T00:48:27.631Z,102669.91
2023-02-08T00:51:03.105Z,102667.34
2023-02-08T00:53:30.047Z,102673.09
2023-02-08T00:55:57.231Z,102668.69
2023-02-08T00:58:25.504Z,102674.00
2023-02-08T01:00:53.730Z,102671.34
2023-02-08T01:03:22.476Z,102679.16
2023-02-08T01:05:49.375Z,102683.00
2023-02-08T01:08:16.475Z,102682.16
2023-02-08T01:10:43.144Z,102681.03
2023-02-08T01:13:09.935Z,102676.81
2023-02-08T01:15:36.993Z,102677.69
2023-02-08T01:18:04.341Z,102674.88
2023-02-08T01:20:31.575Z,102674.16
2023-02-08T01:22:58.236Z,102675.66
2023-02-08T01:25:25.031Z,102673.84
2023-02-08T01:27:51.693Z,102678.03
2023-02-08T01:30:19.372Z,102664.25
2023-02-08T01:32:46.056Z,102670.28
2023-02-08T01:35:12.762Z,102668.94
2023-02-08T01:37:40.882Z,102664.25
2023-02-08T01:40:09.336Z,102663.28
2023-02-08T01:42:36.006Z,102661.69
2023-02-08T01:45:20.695Z,102664.38
2023-02-08T01:47:50.505Z,102659.03
2023-02-08T01:50:20.403Z,102658.50
2023-02-08T01:52:47.438Z,102657.41
2023-02-08T01:55:19.362Z,102650.94
2023-02-08T01:57:46.540Z,102644.22
2023-02-08T02:00:23.131Z,102650.50
2023-02-08T02:02:53.506Z,102652.63
2023-02-08T02:05:22.421Z,102648.84
2023-02-08T02:07:50.947Z,102640.25
2023-02-08T02:10:26.580Z,102644.47
2023-02-08T02:12:56.776Z,102644.34
2023-02-08T02:15:23.797Z,102632.31
2023-02-08T02:17:50.505Z,102628.69
2023-02-08T02:20:44.312Z,102635.50
2023-02-08T02:23:33.904Z,102631.59
2023-02-08T02:26:44.197Z,102621.56
2023-02-08T02:29:42.126Z,102619.44
2023-02-08T02:32:11.937Z,102619.75
2023-02-08T02:34:50.362Z,102618.81
2023-02-08T02:37:34.032Z,102619.13
2023-02-08T02:40:15.201Z,102620.16
2023-02-08T02:43:15.644Z,102616.53
2023-02-08T02:45:56.892Z,102619.81
2023-02-08T02:48:32.534Z,102613.34
2023-02-08T02:51:07.288Z,102625.56
2023-02-08T02:53:50.586Z,102613.38
2023-02-08T02:56:29.409Z,102614.22
2023-02-08T02:59:01.105Z,102610.06
2023-02-08T03:01:29.869Z,102613.56
2023-02-08T03:03:57.810Z,102604.94
2023-02-08T03:06:43.947Z,102604.75
2023-02-08T03:09:39.947Z,102603.66
2023-02-08T03:12:29.579Z,102609.63
2023-02-08T03:14:59.031Z,102611.34
2023-02-08T03:17:37.145Z,102603.97
2023-02-08T03:20:15.644Z,102595.97
2023-02-08T03:22:48.823Z,102601.03
2023-02-08T03:25:23.334Z,102592.78
2023-02-08T03:28:01.017Z,102597.97
2023-02-08T03:31:19.533Z,102605.25
2023-02-08T03:33:54.167Z,102600.41
2023-02-08T03:36:32.974Z,102594.06
2023-02-08T03:39:04.744Z,102600.75
2023-02-08T03:41:37.846Z,102607.47
2023-02-08T03:44:17.393Z,102598.88
2023-02-08T03:46:52.013Z,102609.78
2023-02-08T03:49:23.732Z,102615.53
2023-02-08T03:51:54.263Z,102610.94
2023-02-08T03:54:25.657Z,102620.28
2023-02-08T03:57:03.820Z,102618.19
2023-02-08T03:59:39.581Z,102614.03
2023-02-08T04:02:09.797Z,102607.63
2023-02-08T04:04:40.044Z,102613.31
2023-02-08T04:07:06.882Z,102620.78
2023-02-08T04:09:34.048Z,102610.97
2023-02-08T04:12:00.758Z,102618.09
2023-02-08T04:14:27.388Z,102614.28
2023-02-08T04:16:54.032Z,102613.66
2023-02-08T04:19:20.645Z,102614.91
2023-02-08T04:21:47.402Z,102600.44
2023-02-08T04:24:13.973Z,102606.53
2023-02-08T04:26:40.638Z,102605.72
2023-02-08T04:29:07.329Z,102610.53
2023-02-08T04:31:34.021Z,102613.31
2023-02-08T04:34:02.688Z,102611.78
2023-02-08T04:36:29.426Z,102609.00
2023-02-08T04:38:56.046Z,102611.38
2023-02-08T04:41:22.657Z,102609.13
2023-02-08T04:43:49.289Z,102617.56
2023-02-08T04:46:15.942Z,102605.25
2023-02-08T04:48:42.665Z,102606.47
2023-02-08T04:51:09.321Z,102611.22
2023-02-08T04:53:35.983Z,102612.69
2023-02-08T04:56:02.627Z,102608.63
2023-02-08T04:58:29.239Z,102620.03
2023-02-08T05:00:55.859Z,102615.13
2023-02-08T05:03:22.604Z,102606.41
2023-02-08T05:05:57.502Z,102604.13
2023-02-08T05:08:24.282Z,102603.38
2023-02-08T05:10:50.986Z,102614.13
2023-02-08T05:13:17.684Z,102607.50
2023-02-08T05:15:44.351Z,102609.44
2023-02-08T05:18:11.027Z,102604.41
2023-02-08T05:20:37.751Z,102615.25
2023-02-08T05:23:05.963Z,102620.00
2023-02-08T05:25:32.723Z,102612.28
2023-02-08T05:28:00.284Z,102610.03
2023-02-08T05:30:27.025Z,102604.28
2023-02-08T05:32:53.650Z,102603.16
2023-02-08T05:35:20.410Z,102604.38
2023-02-08T05:37:46.949Z,102600.38
2023-02-08T05:40:13.579Z,102601.69
2023-02-08T05:42:42.386Z,102599.38
2023-02-08T05:45:09.316Z,102613.31
2023-02-08T05:47:36.696Z,102601.50
2023-02-08T05:50:03.469Z,102596.91
2023-02-08T05:52:30.450Z,102602.59
2023-02-08T05:54:57.194Z,102605.38
2023-02-08T05:57:23.782Z,102605.13
2023-02-08T05:59:50.434Z,102607.78
2023-02-08T06:02:17.034Z,102610.31
2023-02-08T06:04:43.609Z,102614.28
2023-02-08T06:07:10.192Z,102617.19
2023-02-08T06:09:36.779Z,102610.69
2023-02-08T06:12:03.755Z,102616.03
2023-02-08T06:14:30.347Z,102623.19
2023-02-08T06:16:57.830Z,102622.44
2023-02-08T06:19:24.498Z,102631.59
2023-02-08T06:21:51.177Z,102630.03
2023-02-08T06:24:17.995Z,102623.50
2023-02-08T06:26:44.605Z,102628.28
2023-02-08T06:29:11.329Z,102636.38
2023-02-08T06:31:37.982Z,102632.31
2023-02-08T06:34:04.670Z,102634.47
2023-02-08T06:36:31.372Z,102635.44
2023-02-08T06:38:58.017Z,102632.81
2023-02-08T06:41:24.717Z,102632.44
2023-02-08T06:43:51.378Z,102629.44
2023-02-08T06:46:17.999Z,102641.97
2023-02-08T06:48:44.564Z,102639.31
2023-02-08T06:51:11.243Z,102632.94
2023-02-08T06:53:37.840Z,102643.97
2023-02-08T06:56:04.832Z,102638.56
2023-02-08T06:58:31.421Z,102638.56
2023-02-08T07:00:58.069Z,102641.66
2023-02-08T07:03:24.811Z,102638.56
2023-02-08T07:06:04.088Z,102639.16
2023-02-08T07:08:34.036Z,102636.63
2023-02-08T07:11:05.498Z,102639.41
2023-02-08T07:13:32.070Z,102641.88
2023-02-08T07:15:58.729Z,102641.00
2023-02-08T07:18:25.491Z,102642.66
2023-02-08T07:20:52.170Z,102645.72
2023-02-08T07:23:18.768Z,102637.75
2023-02-08T07:25:45.896Z,102638.19
2023-02-08T07:28:12.514Z,102638.28
2023-02-08T07:30:39.484Z,102631.72
2023-02-08T07:33:06.248Z,102627.78
2023-02-08T07:35:32.844Z,102633.97
2023-02-08T07:37:59.451Z,102636.66
2023-02-08T07:40:26.029Z,102633.94
2023-02-08T07:42:52.738Z,102628.31
2023-02-08T07:45:29.979Z,102623.84
2023-02-08T07:47:57.045Z,102625.31
2023-02-08T07:50:23.617Z,102624.41
2023-02-08T07:52:50.260Z,102622.78
2023-02-08T07:55:17.269Z,102625.72
2023-02-08T07:57:44.827Z,102621.56
2023-02-08T08:00:12.423Z,102629.31
2023-02-08T08:02:39.444Z,102626.78
2023-02-08T08:05:06.820Z,102631.31
2023-02-08T08:07:33.567Z,102629.66
2023-02-08T08:10:00.276Z,102625.19
2023-02-08T08:12:26.867Z,102629.13
2023-02-08T08:14:53.476Z,102624.63
2023-02-08T08:17:20.078Z,102629.81
2023-02-08T08:19:46.770Z,102625.22
2023-02-08T08:22:13.702Z,102636.38
2023-02-08T08:24:40.429Z,102636.69
2023-02-08T08:27:07.618Z,102632.59
2023-02-08T08:29:36.058Z,102638.31
2023-02-08T08:32:04.220Z,102637.59
2023-02-08T08:34:31.534Z,102632.41
2023-02-08T08:37:02.567Z,102630.19
2023-02-08T08:39:29.194Z,102633.69
2023-02-08T08:42:00.816Z,102634.06
2023-02-08T08:44:27.450Z,102634.31
2023-02-08T08:46:55.947Z,102635.94
2023-02-08T08:49:23.677Z,102634.13
2023-02-08T08:51:51.048Z,102633.03
2023-02-08T08:54:18.369Z,102641.00
2023-02-08T08:56:45.189Z,102640.53
2023-02-08T08:59:12.116Z,102635.50
2023-02-08T09:01:40.025Z,102629.16
2023-02-08T09:04:06.683Z,102629.31
2023-02-08T09:06:33.396Z,102627.25
2023-02-08T09:09:00.232Z,102627.41
2023-02-08T09:11:27.018Z,102630.69
2023-02-08T09:13:56.274Z,102631.47
2023-02-08T09:16:24.157Z,102626.72
2023-02-08T09:18:51.252Z,102623.47
2023-02-08T09:21:20.314Z,102624.69
2023-02-08T09:23:48.072Z,102628.50
2023-02-08T09:26:17.271Z,102632.38
2023-02-08T09:28:44.530Z,102634.28
2023-02-08T09:31:20.226Z,102633.88
2023-02-08T09:33:48.141Z,102632.78
2023-02-08T09:36:15.095Z,102635.19
2023-02-08T09:38:42.319Z,102622.63
2023-02-08T09:41:15.128Z,102632.91
2023-02-08T09:43:54.366Z,102631.84
2023-02-08T09:46:24.400Z,102633.59
2023-02-08T09:48:53.836Z,102638.34
2023-02-08T09:51:38.249Z,102623.16
2023-02-08T09:54:26.306Z,102623.41
2023-02-08T09:56:53.532Z,102613.25
2023-02-08T09:59:27.078Z,102611.72
2023-02-08T10:01:59.147Z,102612.41
2023-02-08T10:04:54.987Z,102608.09
2023-02-08T10:07:21.897Z,102613.16
2023-02-08T10:09:48.492Z,102614.16
2023-02-08T10:12:31.034Z,102603.72
2023-02-08T10:15:03.680Z,102603.94
2023-02-08T10:18:08.259Z,102602.22
2023-02-08T10:21:01.650Z,102604.84
2023-02-08T10:24:07.540Z,102593.47
2023-02-08T10:26:44.402Z,102595.78
2023-02-08T10:29:32.322Z,102594.31
2023-02-08T10:32:22.487Z,102588.66
2023-02-08T10:35:02.198Z,102594.38
2023-02-08T10:37:36.746Z,102586.63
2023-02-08T10:40:16.730Z,102577.88
2023-02-08T10:42:54.992Z,102579.50
2023-02-08T10:45:30.900Z,102569.66
2023-02-08T10:48:05.836Z,102571.09
2023-02-08T10:50:38.970Z,102565.31
2023-02-08T10:53:06.306Z,102560.28
2023-02-08T10:55:36.632Z,102560.31
2023-02-08T10:58:06.115Z,102566.38
2023-02-08T11:00:39.231Z,102566.13
2023-02-08T11:03:18.810Z,102562.63
2023-02-08T11:05:45.722Z,102561.16
2023-02-08T11:08:17.630Z,102550.28
2023-02-08T11:10:56.766Z,102548.13
2023-02-08T11:13:26.231Z,102553.91
2023-02-08T11:15:57.497Z,102542.63
2023-02-08T11:18:26.313Z,102537.72
2023-02-08T11:20:58.681Z,102536.88
2023-02-08T11:23:31.272Z,102536.41
2023-02-08T11:26:22.535Z,102540.59
2023-02-08T11:29:13.464Z,102531.56
2023-02-08T11:31:57.673Z,102533.88
2023-02-08T11:34:44.763Z,102524.75
2023-02-08T11:37:28.357Z,102523.16
2023-02-08T11:39:57.805Z,102522.50
2023-02-08T11:42:27.740Z,102509.84
2023-02-08T11:44:57.002Z,102520.22
2023-02-08T11:47:26.704Z,102513.41
2023-02-08T11:49:56.355Z,102511.03
2023-02-08T11:52:25.680Z,102508.81
2023-02-08T11:54:53.656Z,102503.66
2023-02-08T11:57:23.520Z,102501.28
2023-02-08T11:59:52.412Z,102498.94
2023-02-08T12:02:30.964Z,102496.09
2023-02-08T12:04:58.761Z,102499.78
2023-02-08T12:07:38.012Z,102499.59
2023-02-08T12:10:24.891Z,102490.88
2023-02-08T12:13:00.323Z,102493.28
2023-02-08T12:15:58.544Z,102491.00
2023-02-08T12:18:50.378Z,102495.78
2023-02-08T12:21:29.504Z,102493.06
2023-02-08T12:24:28.262Z,102490.25
2023-02-08T12:27:00.264Z,102476.50
2023-02-08T12:29:48.093Z,102468.34
2023-02-08T12:32:39.366Z,102471.53
2023-02-08T12:35:43.603Z,102460.69
2023-02-08T12:38:48.441Z,102452.78
2023-02-08T12:41:23.430Z,102445.91
2023-02-08T12:44:27.958Z,102447.91
2023-02-08T12:47:30.862Z,102448.25
2023-02-08T12:50:03.668Z,102443.16
2023-02-08T12:52:36.806Z,102444.91
2023-02-08T12:55:24.148Z,102435.59
2023-02-08T12:57:54.172Z,102435.44
2023-02-08T13:00:31.789Z,102430.38
2023-02-08T13:03:13.372Z,102420.88
2023-02-08T13:05:53.415Z,102420.19
2023-02-08T13:08:36.047Z,102416.88
2023-02-08T13:11:29.141Z,102404.41
2023-02-08T13:14:01.343Z,102398.91
2023-02-08T13:16:34.740Z,102395.88
2023-02-08T13:19:51.107Z,102390.38
2023-02-08T13:22:26.557Z,102392.31
2023-02-08T13:25:06.518Z,102386.66
2023-02-08T13:27:34.398Z,102381.19
2023-02-08T13:30:01.510Z,102383.25
2023-02-08T13:32:37.414Z,102382.19
2023-02-08T13:35:16.204Z,102381.84
2023-02-08T13:37:51.556Z,102386.88
2023-02-08T13:40:21.852Z,102376.22
2023-02-08T13:42:54.055Z,102371.53
2023-02-08T13:45:26.934Z,102365.53
2023-02-08T13:48:06.017Z,102362.03
2023-02-08T13:50:35.329Z,102360.88
2023-02-08T13:53:03.354Z,102352.53
2023-02-08T13:55:36.222Z,102358.25
2023-02-08T13:58:13.185Z,102357.88
2023-02-08T14:00:54.902Z,102349.38
2023-02-08T14:03:30.185Z,102348.88
2023-02-08T14:06:18.394Z,102353.91
2023-02-08T14:08:57.629Z,102348.06
2023-02-08T14:11:50.236Z,102350.53
2023-02-08T14:14:27.139Z,102345.69
2023-02-08T14:17:10.963Z,102346.53
2023-02-08T14:19:40.119Z,102345.31
2023-02-08T14:22:14.291Z,102343.50
2023-02-08T14:24:49.779Z,102338.81
2023-02-08T14:27:25.367Z,102337.16
2023-02-08T14:30:19.866Z,102337.16
2023-02-08T14:32:50.063Z,102336.75
2023-02-08T14:35:26.344Z,102332.41
2023-02-08T14:38:24.120Z,102322.38
2023-02-08T14:40:52.304Z,102320.72
2023-02-08T14:43:18.928Z,102316.13
2023-02-08T14:45:53.360Z,102322.09
2023-02-08T14:48:32.741Z,102315.03
2023-02-08T14:51:21.169Z,102307.53
2023-02-08T14:54:14.239Z,102303.78
2023-02-08T14:56:53.608Z,102296.06
2023-02-08T14:59:25.548Z,102296.75
2023-02-08T15:02:03.928Z,102291.59
2023-02-08T15:04:30.953Z,102290.84
2023-02-08T15:07:16.228Z,102280.13
2023-02-08T15:09:44.020Z,102277.19
2023-02-08T15:12:15.101Z,102277.31
2023-02-08T15:14:43.255Z,102270.31
2023-02-08T15:17:32.643Z,102278.72
2023-02-08T15:20:00.778Z,102283.00
2023-02-08T15:22:32.614Z,102280.22
2023-02-08T15:25:02.276Z,102276.97
2023-02-08T15:27:33.434Z,102263.16
2023-02-08T15:30:00.762Z,102270.69
2023-02-08T15:32:29.261Z,102277.25
2023-02-08T15:35:01.873Z,102275.75
2023-02-08T15:37:33.969Z,102270.41
2023-02-08T15:40:01.452Z,102272.91
2023-02-08T15:42:32.113Z,102270.06
2023-02-08T15:45:00.555Z,102259.25
2023-02-08T15:47:34.550Z,102253.06
2023-02-08T15:50:03.289Z,102251.75
2023-02-08T15:52:35.018Z,102252.22
2023-02-08T15:55:02.105Z,102255.72
2023-02-08T15:57:46.580Z,102254.41
2023-02-08T16:00:18.044Z,102260.72
2023-02-08T16:02:51.455Z,102256.72
2023-02-08T16:05:22.215Z,102257.91
2023-02-08T16:07:48.948Z,102256.06
2023-02-08T16:10:27.703Z,102257.44
2023-02-08T16:12:58.640Z,102257.41
2023-02-08T16:15:46.898Z,102264.75
2023-02-08T16:18:34.398Z,102265.78
2023-02-08T16:21:04.092Z,102267.09
2023-02-08T16:23:38.614Z,102275.78
2023-02-08T16:26:19.892Z,102275.44
2023-02-08T16:28:52.948Z,102277.44
2023-02-08T16:31:24.704Z,102270.44
2023-02-08T16:34:05.009Z,102270.78
2023-02-08T16:36:41.480Z,102280.47
2023-02-08T16:39:22.601Z,102279.09
2023-02-08T16:42:15.381Z,102277.28
2023-02-08T16:45:16.444Z,102278.75
2023-02-08T16:47:49.983Z,102276.09
2023-02-08T16:50:23.083Z,102281.97
2023-02-08T16:52:54.216Z,102280.94
2023-02-08T16:55:26.076Z,102284.78
2023-02-08T16:57:55.205Z,102283.09
2023-02-08T17:00:31.498Z,102284.09
2023-02-08T17:02:59.146Z,102291.03
2023-02-08T17:05:29.437Z,102293.00
2023-02-08T17:07:56.867Z,102292.69
2023-02-08T17:10:30.277Z,102297.88
2023-02-08T17:13:13.494Z,102294.69
2023-02-08T17:15:47.042Z,102292.00
2023-02-08T17:18:14.407Z,102290.31
2023-02-08T17:20:41.263Z,102296.00
2023-02-08T17:23:08.030Z,102301.00
2023-02-08T17:25:35.728Z,102305.00
2023-02-08T17:28:05.805Z,102310.09
2023-02-08T17:30:41.382Z,102314.25
2023-02-08T17:33:10.015Z,102312.63
2023-02-08T17:35:38.132Z,102315.44
2023-02-08T17:38:05.742Z,102322.28
2023-02-08T17:40:35.100Z,102314.06
2023-02-08T17:43:02.696Z,102313.88
2023-02-08T17:45:29.659Z,102313.66
2023-02-08T17:48:00.024Z,102314.47
2023-02-08T17:50:27.110Z,102310.81
2023-02-08T17:52:54.069Z,102310.31
2023-02-08T17:55:20.792Z,102311.13
2023-02-08T17:57:47.688Z,102315.75
2023-02-08T18:00:16.674Z,102317.56
2023-02-08T18:02:48.867Z,102318.69
2023-02-08T18:05:20.975Z,102310.75
2023-02-08T18:07:47.778Z,102320.41
2023-02-08T18:10:15.432Z,102316.81
2023-02-08T18:12:42.820Z,102313.06
2023-02-08T18:15:12.326Z,102319.72
2023-02-08T18:17:39.728Z,102320.38
2023-02-08T18:20:07.063Z,102318.91
2023-02-08T18:22:34.157Z,102317.75
2023-02-08T18:25:03.288Z,102324.03
2023-02-08T18:27:31.075Z,102317.47
2023-02-08T18:29:57.740Z,102321.31
2023-02-08T18:32:25.607Z,102327.13
2023-02-08T18:34:52.210Z,102322.72
2023-02-08T18:37:18.847Z,102324.41
2023-02-08T18:39:45.700Z,102325.72
2023-02-08T18:42:12.432Z,102319.75
2023-02-08T18:44:39.073Z,102314.50
2023-02-08T18:47:07.424Z,102312.06
2023-02-08T18:49:40.729Z,102311.00
2023-02-08T18:52:13.435Z,102317.41
2023-02-08T18:54:40.277Z,102312.50
2023-02-08T18:57:09.736Z,102304.97
2023-02-08T18:59:38.957Z,102303.47
2023-02-08T19:02:07.789Z,102304.41
2023-02-08T19:04:38.592Z,102305.00
2023-02-08T19:07:06.770Z,102306.16
2023-02-08T19:09:37.940Z,102309.56
2023-02-08T19:12:05.577Z,102307.09
2023-02-08T19:14:32.241Z,102306.22
2023-02-08T19:16:59.385Z,102303.06
2023-02-08T19:19:26.253Z,102312.13
2023-02-08T19:21:52.866Z,102310.63
2023-02-08T19:24:19.614Z,102313.28
2023-02-08T19:26:46.863Z,102316.78
2023-02-08T19:29:17.191Z,102319.34
2023-02-08T19:31:44.537Z,102322.22
2023-02-08T19:34:12.587Z,102310.88
2023-02-08T19:36:45.036Z,102316.38
2023-02-08T19:39:15.140Z,102314.38
2023-02-08T19:41:42.405Z,102316.09
2023-02-08T19:44:11.557Z,102321.03
2023-02-08T19:46:44.027Z,102315.66
2023-02-08T19:49:12.548Z,102324.59
2023-02-08T19:51:39.206Z,102315.19
2023-02-08T19:54:09.992Z,102310.59
2023-02-08T19:56:37.175Z,102315.34
2023-02-08T19:59:05.478Z,102310.97
2023-02-08T20:01:34.177Z,102296.47
2023-02-08T20:04:01.648Z,102301.00
2023-02-08T20:06:32.912Z,102301.34
2023-02-08T20:09:00.588Z,102295.88
2023-02-08T20:11:30.606Z,102286.81
2023-02-08T20:13:58.978Z,102287.53
2023-02-08T20:16:29.355Z,102276.00
2023-02-08T20:18:57.693Z,102274.66
2023-02-08T20:21:24.604Z,102274.81
2023-02-08T20:23:51.544Z,102274.06
2023-02-08T20:26:21.936Z,102280.03
2023-02-08T20:28:54.980Z,102288.81
2023-02-08T20:31:24.961Z,102287.91
2023-02-08T20:33:52.161Z,102286.19
2023-02-08T20:36:26.084Z,102293.69
2023-02-08T20:38:54.663Z,102291.31
2023-02-08T20:41:23.096Z,102298.38
2023-02-08T20:43:50.237Z,102303.19
2023-02-08T20:46:25.931Z,102304.06
2023-02-08T20:48:55.142Z,102303.09
2023-02-08T20:51:23.630Z,102295.22
2023-02-08T20:53:50.529Z,102298.16
2023-02-08T20:56:20.325Z,102290.91
2023-02-08T20:58:47.303Z,102292.47
2023-02-08T21:01:16.601Z,102300.41
2023-02-08T21:03:43.872Z,102296.09
2023-02-08T21:06:16.423Z,102297.69
2023-02-08T21:08:43.942Z,102292.63
2023-02-08T21:11:11.561Z,102293.91
2023-02-08T21:13:38.710Z,102292.75
2023-02-08T21:16:09.611Z,102282.47
2023-02-08T21:18:37.367Z,102286.25
2023-02-08T21:21:08.164Z,102288.00
2023-02-08T21:23:36.216Z,102287.94
2023-02-08T21:26:06.171Z,102297.06
2023-02-08T21:28:33.328Z,102287.66
2023-02-08T21:31:03.107Z,102296.34
2023-02-08T21:33:30.360Z,102275.06
2023-02-08T21:36:00.613Z,102277.22
2023-02-08T21:38:27.312Z,102282.84
2023-02-08T21:40:54.024Z,102273.34
2023-02-08T21:43:20.698Z,102272.84
2023-02-08T21:45:47.670Z,102268.66
2023-02-08T21:48:14.402Z,102263.69
2023-02-08T21:50:59.773Z,102269.63
2023-02-08T21:53:45.789Z,102260.06
2023-02-08T21:56:12.441Z,102260.06
2023-02-08T21:58:40.147Z,102257.84
2023-02-08T22:01:06.900Z,102258.34
2023-02-08T22:03:34.440Z,102246.09
2023-02-08T22:06:20.241Z,102242.47
2023-02-08T22:08:46.933Z,102240.16
2023-02-08T22:11:14.685Z,102234.09
2023-02-08T22:13:43.274Z,102246.09
2023-02-08T22:16:10.644Z,102248.59
2023-02-08T22:18:41.157Z,102245.06
2023-02-08T22:21:08.764Z,102234.63
2023-02-08T22:23:36.230Z,102233.50
2023-02-08T22:26:08.210Z,102242.22
2023-02-08T22:28:35.778Z,102237.81
2023-02-08T22:31:03.962Z,102231.94
2023-02-08T22:33:30.851Z,102230.47
2023-02-08T22:35:57.527Z,102234.66
2023-02-08T22:38:24.512Z,102236.31
2023-02-08T22:40:51.297Z,102232.09
2023-02-08T22:43:17.979Z,102228.56
2023-02-08T22:45:44.612Z,102236.88
2023-02-08T22:48:11.358Z,102229.75
2023-02-08T22:50:38.507Z,102225.53
2023-02-08T22:53:05.083Z,102224.19
2023-02-08T22:55:31.845Z,102226.50
2023-02-08T22:57:58.402Z,102230.00
2023-02-08T23:00:25.293Z,102237.91
2023-02-08T23:02:51.977Z,102233.31
2023-02-08T23:05:19.991Z,102237.63
2023-02-08T23:07:46.821Z,102235.31
2023-02-08T23:10:13.620Z,102233.25
2023-02-08T23:12:40.328Z,102232.75
2023-02-08T23:15:07.092Z,102228.09
2023-02-08T23:17:35.606Z,102223.03
2023-02-08T23:20:02.139Z,102224.66
2023-02-08T23:22:30.301Z,102224.78
2023-02-08T23:24:57.024Z,102212.16
2023-02-08T23:27:23.608Z,102207.72
2023-02-08T23:29:50.274Z,102213.88
2023-02-08T23:32:16.933Z,102226.78
2023-02-08T23:34:43.578Z,102223.00
2023-02-08T23:37:10.184Z,102219.97
2023-02-08T23:39:36.779Z,102216.50
2023-02-08T23:42:03.535Z,102218.91
2023-02-08T23:44:30.203Z,102221.94
2023-02-08T23:46:57.001Z,102223.81
2023-02-08T23:49:23.624Z,102219.84
2023-02-08T23:51:50.216Z,102221.50
2023-02-08T23:54:16.798Z,102224.03
2023-02-08T23:56:43.424Z,102224.47
2023-02-08T23:59:10.583Z,102225.81
